Time;durP1;ratioP1;P1;durP2;ratioP2;P2;SDS_P1;SDS_P2;PMS_P1;PMS_P2;Temp;Humidity;BMP_temperature;BMP_pressure;BME280_temperature;BME280_humidity;BME280_pressure;Samples;Min_cycle;Max_cycle;Signal;HPM_P1;HPM_P2
2022/07/09 00:01:59;;;;;;;12.35;5.88;;;;;;;19.23;100.00;102803.97;4754350;30;20155;-65
2022/07/09 00:04:25;;;;;;;10.88;5.78;;;;;;;19.20;100.00;102801.63;4759429;30;20118;-63
2022/07/09 00:06:52;;;;;;;10.57;6.57;;;;;;;19.10;100.00;102801.72;4760036;29;20066;-63
2022/07/09 00:09:19;;;;;;;15.52;6.22;;;;;;;19.06;100.00;102792.38;4767182;29;20059;-64
2022/07/09 00:11:45;;;;;;;12.75;5.70;;;;;;;19.05;100.00;102798.69;4752010;29;20051;-64
2022/07/09 00:14:12;;;;;;;11.52;6.38;;;;;;;19.00;100.00;102787.69;4759078;30;20052;-62
2022/07/09 00:16:38;;;;;;;12.20;5.88;;;;;;;19.02;100.00;102800.81;4757734;30;20437;-62
2022/07/09 00:19:05;;;;;;;10.90;6.20;;;;;;;19.00;100.00;102794.81;4750694;30;20055;-62
2022/07/09 00:21:31;;;;;;;10.63;6.45;;;;;;;18.95;100.00;102801.44;4758662;30;20056;-62
2022/07/09 00:23:58;;;;;;;11.40;5.80;;;;;;;18.91;100.00;102797.38;4758976;30;20135;-62
2022/07/09 00:26:24;;;;;;;13.25;6.00;;;;;;;18.94;100.00;102796.28;4756988;30;20075;-63
2022/07/09 00:28:50;;;;;;;12.45;6.13;;;;;;;18.90;100.00;102801.06;4761624;29;20047;-62
2022/07/09 00:31:17;;;;;;;9.57;6.45;;;;;;;18.87;100.00;102801.34;4767249;29;20425;-64
2022/07/09 00:33:43;;;;;;;10.75;5.97;;;;;;;18.81;100.00;102804.63;4752505;30;20059;-63
2022/07/09 00:36:10;;;;;;;9.55;6.05;;;;;;;18.77;100.00;102806.72;4755427;30;20070;-62
2022/07/09 00:38:36;;;;;;;10.88;6.43;;;;;;;18.73;100.00;102809.84;4764712;30;20079;-62
2022/07/09 00:41:03;;;;;;;9.65;6.60;;;;;;;18.68;100.00;102804.13;4755920;30;20090;-62
2022/07/09 00:43:30;;;;;;;11.15;6.72;;;;;;;18.63;100.00;102803.78;4780536;29;20051;-62
2022/07/09 00:45:57;;;;;;;10.23;7.05;;;;;;;18.63;100.00;102796.63;4767659;29;20095;-63
2022/07/09 00:48:23;;;;;;;11.00;7.28;;;;;;;18.60;100.00;102796.09;4747261;30;20046;-62
2022/07/09 00:50:50;;;;;;;9.70;6.40;;;;;;;18.59;100.00;102795.25;4758443;30;20078;-63
2022/07/09 00:53:21;;;;;;;9.27;6.60;;;;;;;18.58;100.00;102793.56;4750363;30;20380;-63
2022/07/09 00:55:48;;;;;;;10.05;6.78;;;;;;;18.56;100.00;102788.44;4758908;29;20059;-64
2022/07/09 00:58:17;;;;;;;13.50;7.15;;;;;;;18.58;100.00;102786.47;4752620;30;20065;-62
2022/07/09 01:00:45;;;;;;;12.20;6.90;;;;;;;18.55;100.00;102783.25;4765647;29;20092;-63
2022/07/09 01:03:11;;;;;;;11.75;7.32;;;;;;;18.52;100.00;102788.88;4763031;30;20066;-63
2022/07/09 01:05:38;;;;;;;14.02;7.03;;;;;;;18.52;100.00;102794.19;4755711;30;20085;-63
2022/07/09 01:08:05;;;;;;;12.52;7.05;;;;;;;18.48;100.00;102790.97;4762073;29;20134;-62
2022/07/09 01:10:34;;;;;;;11.80;7.38;;;;;;;18.49;100.00;102781.22;4760865;29;20061;-61
2022/07/09 01:13:00;;;;;;;;;;;;;;;18.45;100.00;102780.69;4762545;30;20074;-62
2022/07/09 01:15:27;;;;;;;13.27;7.10;;;;;;;18.40;100.00;102774.97;4747365;30;19956;-62
2022/07/09 01:17:55;;;;;;;12.45;7.57;;;;;;;18.38;100.00;102777.78;4747316;30;20063;-63
2022/07/09 01:20:23;;;;;;;10.20;6.60;;;;;;;18.41;100.00;102775.81;4753482;30;20086;-62
2022/07/09 01:22:49;;;;;;;9.10;6.22;;;;;;;18.37;100.00;102776.13;4750793;30;20113;-63
2022/07/09 01:25:17;;;;;;;11.15;6.88;;;;;;;18.36;100.00;102777.09;4768683;29;20102;-62
2022/07/09 01:27:45;;;;;;;10.80;7.32;;;;;;;18.28;100.00;102766.38;4757600;29;20063;-63
2022/07/09 01:30:23;;;;;;;10.68;7.07;;;;;;;18.26;100.00;102764.88;4761387;30;20056;-62
2022/07/09 01:32:50;;;;;;;10.70;6.90;;;;;;;18.21;100.00;102761.81;4754684;30;20089;-63
2022/07/09 01:35:17;;;;;;;11.27;6.80;;;;;;;18.20;100.00;102760.16;4762292;30;20980;-62
2022/07/09 01:37:43;;;;;;;13.90;7.10;;;;;;;18.18;100.00;102752.34;4756250;30;20063;-63
2022/07/09 01:40:10;;;;;;;12.65;6.80;;;;;;;18.20;100.00;102750.34;4741912;30;20071;-61
2022/07/09 01:42:36;;;;;;;11.63;6.70;;;;;;;18.14;100.00;102738.50;4762239;30;20069;-63
2022/07/09 01:45:03;;;;;;;13.07;7.18;;;;;;;18.17;100.00;102740.88;4760228;29;20074;-63
2022/07/09 01:47:30;;;;;;;9.70;6.43;;;;;;;18.16;100.00;102741.03;4755641;30;20090;-62
2022/07/09 01:49:56;;;;;;;12.82;6.63;;;;;;;18.13;100.00;102739.50;4756929;30;20059;-63
2022/07/09 01:52:23;;;;;;;11.15;6.13;;;;;;;18.07;100.00;102742.78;4769659;30;20059;-64
2022/07/09 01:54:50;;;;;;;9.68;6.68;;;;;;;18.03;100.00;102740.53;4748269;30;20073;-63
2022/07/09 01:57:16;;;;;;;12.23;7.07;;;;;;;18.05;100.00;102727.94;4756972;30;20047;-63
2022/07/09 01:59:43;;;;;;;12.82;6.57;;;;;;;18.00;100.00;102731.06;4765924;30;20505;-63
2022/07/09 02:02:09;;;;;;;10.98;7.07;;;;;;;17.94;100.00;102727.19;4767747;29;20469;-61
2022/07/09 02:04:36;;;;;;;11.60;7.00;;;;;;;17.94;100.00;102721.03;4767289;30;20108;-62
2022/07/09 02:07:03;;;;;;;10.32;6.93;;;;;;;17.93;100.00;102728.16;4743972;29;20124;-62
2022/07/09 02:09:29;;;;;;;9.70;7.05;;;;;;;17.89;100.00;102724.13;4760305;29;20476;-61
2022/07/09 02:11:56;;;;;;;10.73;6.90;;;;;;;17.82;100.00;102723.03;4767346;30;20075;-60
2022/07/09 02:14:22;;;;;;;10.18;6.65;;;;;;;17.75;100.00;102729.91;4766990;29;20430;-62
2022/07/09 02:16:48;;;;;;;9.25;7.00;;;;;;;17.71;100.00;102733.84;4776759;30;20060;-61
2022/07/09 02:19:15;;;;;;;10.27;6.63;;;;;;;17.66;100.00;102742.25;4758871;30;20086;-61
2022/07/09 02:21:41;;;;;;;10.00;7.38;;;;;;;17.59;100.00;102736.69;4759950;30;20285;-61
2022/07/09 02:24:08;;;;;;;14.90;7.20;;;;;;;17.52;100.00;102732.09;4757484;30;20433;-61
2022/07/09 02:26:34;;;;;;;12.30;7.55;;;;;;;17.54;100.00;102732.78;4759141;30;20056;-62
2022/07/09 02:29:01;;;;;;;13.90;8.63;;;;;;;17.37;100.00;102718.50;4760460;30;20417;-61
2022/07/09 02:31:28;;;;;;;11.63;8.40;;;;;;;17.39;100.00;102722.66;4769681;29;20063;-62
2022/07/09 02:33:54;;;;;;;12.35;8.70;;;;;;;17.30;100.00;102712.91;4760957;30;20102;-61
2022/07/09 02:36:21;;;;;;;11.63;8.80;;;;;;;17.34;100.00;102718.75;4751087;29;20051;-62
2022/07/09 02:38:48;;;;;;;11.85;9.38;;;;;;;17.31;100.00;102714.59;4766083;30;20055;-61
2022/07/09 02:41:14;;;;;;;12.38;8.70;;;;;;;17.31;100.00;102729.69;4766677;30;20390;-62
2022/07/09 02:43:43;;;;;;;13.90;9.32;;;;;;;17.30;100.00;102720.88;4770156;29;20425;-62
2022/07/09 02:46:10;;;;;;;14.77;9.93;;;;;;;17.26;100.00;102722.13;4771489;30;20059;-62
2022/07/09 02:48:37;;;;;;;12.05;9.25;;;;;;;17.22;100.00;102733.19;4758348;30;20430;-62
2022/07/09 02:51:04;;;;;;;13.57;9.43;;;;;;;17.15;100.00;102735.56;4763403;30;20069;-64
2022/07/09 02:53:32;;;;;;;13.25;9.60;;;;;;;17.08;100.00;102730.00;4761417;30;20067;-62
2022/07/09 02:55:58;;;;;;;13.57;9.50;;;;;;;17.07;100.00;102732.78;4768237;30;20490;-62
2022/07/09 02:58:25;;;;;;;14.20;8.50;;;;;;;17.06;100.00;102736.44;4770837;30;20483;-63
2022/07/09 03:00:51;;;;;;;16.08;9.70;;;;;;;17.04;100.00;102735.75;4772692;29;20067;-62
2022/07/09 03:03:18;;;;;;;12.00;9.43;;;;;;;17.00;100.00;102738.66;4761526;30;20067;-61
2022/07/09 03:05:44;;;;;;;16.23;9.15;;;;;;;17.01;100.00;102744.78;4765152;29;20405;-62
2022/07/09 03:08:10;;;;;;;13.63;8.95;;;;;;;16.93;100.00;102742.03;4764989;30;20062;-63
2022/07/09 03:10:37;;;;;;;13.18;8.75;;;;;;;16.89;100.00;102753.88;4764965;29;20051;-62
2022/07/09 03:13:03;;;;;;;14.90;8.73;;;;;;;16.91;100.00;102750.09;4760769;30;20059;-62
2022/07/09 03:15:35;;;;;;;13.27;9.50;;;;;;;16.92;100.00;102735.91;4757926;30;20130;-62
2022/07/09 03:18:02;;;;;;;12.20;9.02;;;;;;;16.91;100.00;102739.50;4756748;30;20060;-62
2022/07/09 03:20:28;;;;;;;11.88;9.50;;;;;;;16.92;100.00;102735.06;4766777;30;20055;-62
2022/07/09 03:22:55;;;;;;;17.10;9.27;;;;;;;16.95;100.00;102732.13;4757917;30;20131;-62
2022/07/09 03:25:21;;;;;;;13.88;8.82;;;;;;;17.01;100.00;102736.84;4769410;30;20052;-62
2022/07/09 03:27:48;;;;;;;12.50;8.52;;;;;;;17.06;100.00;102739.09;4762270;30;20094;-62
2022/07/09 03:30:14;;;;;;;14.38;9.52;;;;;;;17.06;100.00;102737.25;4751232;30;20071;-62
2022/07/09 03:32:40;;;;;;;14.90;9.20;;;;;;;17.06;100.00;102728.47;4760430;30;20062;-63
2022/07/09 03:35:07;;;;;;;13.02;8.38;;;;;;;17.07;100.00;102723.03;4775691;29;20070;-62
2022/07/09 03:37:33;;;;;;;15.32;8.88;;;;;;;17.07;100.00;102719.53;4766713;29;20494;-62
2022/07/09 03:40:00;;;;;;;11.55;9.23;;;;;;;17.04;100.00;102723.31;4759236;30;20066;-61
2022/07/09 03:42:26;;;;;;;13.77;9.23;;;;;;;17.07;100.00;102719.53;4765020;30;20142;-62
2022/07/09 03:44:53;;;;;;;13.27;9.00;;;;;;;17.12;100.00;102712.00;4762408;30;20055;-63
2022/07/09 03:47:19;;;;;;;14.85;9.23;;;;;;;17.15;100.00;102722.28;4764238;30;20055;-62
2022/07/09 03:49:46;;;;;;;11.70;8.48;;;;;;;17.24;100.00;102726.75;4766700;30;20048;-62
2022/07/09 03:52:12;;;;;;;14.32;9.48;;;;;;;17.25;100.00;102722.28;4765438;29;20051;-64
2022/07/09 03:54:47;;;;;;;14.95;9.70;;;;;;;17.31;100.00;102727.03;4755720;30;20490;-62
2022/07/09 03:57:13;;;;;;;19.48;10.63;;;;;;;17.32;100.00;102720.72;4755277;30;20051;-62
2022/07/09 03:59:40;;;;;;;15.95;10.40;;;;;;;17.35;100.00;102733.72;4761696;30;20056;-63
2022/07/09 04:02:07;;;;;;;15.93;10.80;;;;;;;17.31;100.00;102733.16;4757237;29;20060;-63
2022/07/09 04:04:39;;;;;;;15.45;10.38;;;;;;;17.32;100.00;102734.81;4761760;30;20060;-62
2022/07/09 04:07:05;;;;;;;16.35;11.10;;;;;;;17.31;100.00;102733.16;4755714;30;20068;-62
2022/07/09 04:09:32;;;;;;;14.05;10.40;;;;;;;17.39;100.00;102729.78;4752570;30;20048;-63
2022/07/09 04:11:58;;;;;;;16.55;10.85;;;;;;;17.38;100.00;102722.78;4748209;30;20066;-61
2022/07/09 04:14:25;;;;;;;13.18;9.65;;;;;;;17.44;100.00;102730.16;4756978;30;20074;-62
2022/07/09 04:16:51;;;;;;;15.60;10.25;;;;;;;17.44;100.00;102716.06;4760703;30;20056;-62
2022/07/09 04:19:18;;;;;;;15.20;11.38;;;;;;;17.46;100.00;102722.06;4752281;30;20072;-62
2022/07/09 04:21:44;;;;;;;14.93;10.68;;;;;;;17.50;100.00;102718.97;4759221;30;20521;-62
2022/07/09 04:24:10;;;;;;;16.15;11.40;;;;;;;17.48;100.00;102714.81;4749177;30;20064;-62
2022/07/09 04:26:37;;;;;;;14.93;10.65;;;;;;;17.50;100.00;102710.19;4762033;30;20055;-62
2022/07/09 04:29:03;;;;;;;15.82;10.23;;;;;;;17.49;100.00;102712.00;4761156;29;20147;-62
2022/07/09 04:31:30;;;;;;;16.80;11.18;;;;;;;17.58;100.00;102715.59;4760666;30;20059;-62
2022/07/09 04:33:56;;;;;;;14.23;10.48;;;;;;;17.64;100.00;102707.06;4750909;30;20067;-63
2022/07/09 04:36:22;;;;;;;14.70;11.02;;;;;;;17.61;100.00;102712.66;4760152;29;20438;-63
2022/07/09 04:38:49;;;;;;;16.70;11.00;;;;;;;17.58;100.00;102715.59;4760713;30;20049;-63
2022/07/09 04:41:15;;;;;;;15.45;11.25;;;;;;;17.62;100.00;102708.19;4768413;29;20391;-62
2022/07/09 04:43:42;;;;;;;18.15;11.85;;;;;;;17.65;100.00;102716.69;4756047;29;20086;-62
2022/07/09 04:46:08;;;;;;;18.25;11.95;;;;;;;17.68;100.00;102705.78;4760574;30;20056;-63
2022/07/09 04:48:35;;;;;;;16.98;11.23;;;;;;;17.66;100.00;102706.91;4753352;30;20051;-62
2022/07/09 04:51:02;;;;;;;15.65;11.30;;;;;;;17.71;100.00;102707.31;4758374;30;20075;-62
2022/07/09 04:53:28;;;;;;;15.75;11.23;;;;;;;17.73;100.00;102702.69;4755846;30;20059;-62
2022/07/09 04:55:55;;;;;;;15.35;11.52;;;;;;;17.73;100.00;102702.69;4759155;30;20214;-62
2022/07/09 04:58:21;;;;;;;21.20;12.27;;;;;;;17.73;100.00;102697.38;4764199;30;20055;-63
2022/07/09 05:00:47;;;;;;;17.60;12.32;;;;;;;17.76;100.00;102694.44;4753325;29;20160;-62
2022/07/09 05:03:14;;;;;;;18.33;12.52;;;;;;;17.76;100.00;102699.75;4762869;30;20067;-63
2022/07/09 05:05:40;;;;;;;16.80;11.82;;;;;;;17.78;100.00;102695.13;4758237;30;20080;-62
2022/07/09 05:08:15;;;;;;;17.15;12.05;;;;;;;17.84;100.00;102709.63;4755033;30;20052;-61
2022/07/09 05:10:42;;;;;;;16.90;11.52;;;;;;;17.80;100.00;102709.06;4758068;30;20048;-62
2022/07/09 05:13:08;;;;;;;16.08;11.52;;;;;;;17.64;100.00;102696.44;4742479;30;20493;-62
2022/07/09 05:15:35;;;;;;;16.85;11.98;;;;;;;17.52;100.00;102693.16;4768264;30;20051;-63
2022/07/09 05:18:01;;;;;;;16.27;11.75;;;;;;;17.63;100.00;102701.91;4759446;30;20107;-62
2022/07/09 05:20:28;;;;;;;17.30;11.82;;;;;;;17.66;100.00;102697.13;4759831;30;20055;-62
2022/07/09 05:22:55;;;;;;;17.23;12.23;;;;;;;17.56;100.00;102689.22;4750574;30;20056;-63
2022/07/09 05:25:21;;;;;;;19.13;12.82;;;;;;;17.57;100.00;102682.91;4767590;30;20051;-63
2022/07/09 05:27:48;;;;;;;16.92;11.82;;;;;;;17.69;100.00;102683.56;4759951;29;20076;-63
2022/07/09 05:30:15;;;;;;;18.48;13.25;;;;;;;17.68;100.00;102686.34;4757616;30;20063;-63
2022/07/09 05:32:44;;;;;;;20.42;14.27;;;;;;;17.65;100.00;102681.34;4754845;30;20060;-62
2022/07/09 05:35:12;;;;;;;21.02;14.55;;;;;;;17.71;100.00;102681.59;4762553;30;20502;-62
2022/07/09 05:37:42;;;;;;;20.55;13.40;;;;;;;17.79;100.00;102691.47;4761642;30;20052;-62
2022/07/09 05:40:10;;;;;;;19.23;13.02;;;;;;;17.82;100.00;102690.31;4747849;30;20066;-62
2022/07/09 05:42:36;;;;;;;18.40;12.27;;;;;;;17.81;100.00;102694.81;4759032;30;20520;-62
2022/07/09 05:45:03;;;;;;;17.77;13.00;;;;;;;17.89;100.00;102694.91;4769851;30;20051;-62
2022/07/09 05:47:30;;;;;;;17.85;13.70;;;;;;;18.03;100.00;102695.41;4756373;30;20065;-64
2022/07/09 05:49:56;;;;;;;21.20;14.95;;;;;;;18.09;100.00;102697.44;4754363;30;20048;-63
2022/07/09 05:52:23;;;;;;;19.67;12.98;;;;;;;18.13;100.00;102698.81;4760264;30;20059;-62
2022/07/09 05:54:49;;;;;;;22.63;14.98;;;;;;;18.17;100.00;102698.38;4756648;30;20142;-62
2022/07/09 05:57:15;;;;;;;19.63;14.27;;;;;;;18.20;100.00;102696.41;4754858;30;20055;-62
2022/07/09 05:59:42;;;;;;;19.25;12.98;;;;;;;18.17;100.00;102695.72;4763127;30;20051;-62
2022/07/09 06:02:08;;;;;;;20.63;14.10;;;;;;;18.26;100.00;102699.28;4760495;29;20060;-62
2022/07/09 06:04:35;;;;;;;19.83;14.07;;;;;;;18.28;100.00;102692.00;4756796;29;20436;-62
2022/07/09 06:07:01;;;;;;;19.25;12.98;;;;;;;18.37;100.00;102700.91;4760280;30;20147;-62
2022/07/09 06:09:27;;;;;;;24.65;14.52;;;;;;;18.33;100.00;102697.69;4746282;30;20528;-62
2022/07/09 06:11:54;;;;;;;19.13;12.82;;;;;;;18.46;100.00;102699.13;4756721;30;20064;-64
2022/07/09 06:14:20;;;;;;;20.13;13.25;;;;;;;18.44;100.00;102698.44;4756078;29;20051;-62
2022/07/09 06:16:55;;;;;;;19.65;12.98;;;;;;;18.55;100.00;102703.53;4759776;29;20494;-63
2022/07/09 06:19:22;;;;;;;17.90;12.50;;;;;;;18.65;100.00;102695.47;4763399;30;20051;-64
2022/07/09 06:21:49;;;;;;;18.65;12.35;;;;;;;18.68;100.00;102690.69;4744890;29;20055;-63
2022/07/09 06:24:15;;;;;;;21.13;13.05;;;;;;;18.64;100.00;102692.00;4760668;30;20056;-63
2022/07/09 06:26:42;;;;;;;18.33;12.80;;;;;;;18.74;100.00;102690.06;4750801;30;20060;-63
2022/07/09 06:29:08;;;;;;;18.98;13.00;;;;;;;18.68;100.00;102685.38;4769662;29;20103;-63
2022/07/09 06:31:35;;;;;;;16.48;12.38;;;;;;;18.82;100.00;102692.00;4744739;30;20052;-63
2022/07/09 06:34:02;;;;;;;14.98;10.50;;;;;;;19.00;100.00;102694.59;4743555;30;20064;-63
2022/07/09 06:36:29;;;;;;;19.47;12.67;;;;;;;19.11;100.00;102693.47;4744361;30;20056;-62
2022/07/09 06:41:42;;;;;;;17.05;12.35;;;;;;;19.36;100.00;102692.63;4759349;29;20080;-62
2022/07/09 06:44:08;;;;;;;16.35;12.00;;;;;;;19.34;100.00;102686.63;4764656;29;20064;-62
2022/07/09 06:46:35;;;;;;;20.58;12.52;;;;;;;19.28;100.00;102697.91;4764024;30;20252;-64
2022/07/09 06:49:02;;;;;;;18.33;12.90;;;;;;;19.34;100.00;102691.94;4753215;30;20063;-62
2022/07/09 06:51:28;;;;;;;17.73;12.65;;;;;;;19.25;100.00;102694.72;4750024;30;20075;-63
2022/07/09 06:53:55;;;;;;;20.05;13.40;;;;;;;19.32;100.00;102698.44;4761391;30;20066;-62
2022/07/09 06:56:22;;;;;;;20.25;13.48;;;;;;;19.27;100.00;102700.75;4757360;30;20059;-62
2022/07/09 06:58:49;;;;;;;18.55;12.85;;;;;;;19.35;100.00;102703.44;4756853;30;20073;-63
2022/07/09 07:01:15;;;;;;;18.10;13.30;;;;;;;19.42;100.00;102699.13;4754698;30;20079;-62
2022/07/09 07:03:42;;;;;;;17.00;11.55;;;;;;;19.52;100.00;102705.19;4755902;30;20155;-62
2022/07/09 07:06:08;;;;;;;16.80;10.25;;;;;;;19.55;100.00;102693.38;4750984;30;20502;-61
2022/07/09 07:08:34;;;;;;;13.40;8.50;;;;;;;19.62;100.00;102693.56;4749508;30;20060;-62
2022/07/09 07:11:02;;;;;;;12.00;8.80;;;;;;;19.74;100.00;102690.47;4764283;30;20553;-61
2022/07/09 07:13:28;;;;;;;13.13;9.38;;;;;;;19.80;100.00;102690.81;4760142;30;20051;-62
2022/07/09 07:15:55;;;;;;;13.85;9.00;;;;;;;19.76;100.00;102693.00;4761043;30;20052;-63
2022/07/09 07:18:21;;;;;;;15.02;9.90;;;;;;;19.81;100.00;102695.97;4749522;30;20060;-64
2022/07/09 07:20:48;;;;;;;14.00;10.43;;;;;;;19.91;100.00;102694.00;4759454;30;20513;-62
2022/07/09 07:23:15;;;;;;;15.75;9.68;;;;;;;19.92;100.00;102694.88;4761761;30;20063;-61
2022/07/09 07:25:42;;;;;;;18.05;10.27;;;;;;;19.94;100.00;102701.69;4764000;30;20060;-62
2022/07/09 07:28:08;;;;;;;14.00;9.48;;;;;;;19.96;100.00;102696.19;4761391;30;20063;-61
2022/07/09 07:30:35;;;;;;;13.13;8.00;;;;;;;19.94;100.00;102687.53;4761622;30;20059;-62
2022/07/09 07:33:02;;;;;;;13.10;9.68;;;;;;;20.09;100.00;102677.06;4768411;30;20069;-63
2022/07/09 07:35:28;;;;;;;12.68;8.27;;;;;;;20.19;100.00;102684.91;4758933;29;20064;-63
2022/07/09 07:37:55;;;;;;;13.48;7.43;;;;;;;20.09;100.00;102680.59;4764390;30;20393;-62
2022/07/09 07:40:22;;;;;;;10.52;8.07;;;;;;;20.08;100.00;102686.91;4763804;29;20056;-62
2022/07/09 07:42:48;;;;;;;13.73;8.98;;;;;;;20.19;100.00;102684.91;4759253;30;20067;-62
2022/07/09 07:45:15;;;;;;;13.88;8.70;;;;;;;20.22;100.00;102677.41;4761768;30;20066;-62
2022/07/09 07:47:41;;;;;;;13.73;9.18;;;;;;;20.30;100.00;102687.25;4759463;30;20058;-63
2022/07/09 07:50:08;;;;;;;14.20;9.02;;;;;;;20.39;100.00;102685.44;4771834;29;20125;-61
2022/07/09 07:52:34;;;;;;;14.05;8.63;;;;;;;20.50;100.00;102690.41;4757699;30;20584;-62
2022/07/09 07:55:01;;;;;;;11.25;7.57;;;;;;;20.64;100.00;102686.28;4759516;30;20055;-62
2022/07/09 07:57:27;;;;;;;12.48;8.63;;;;;;;20.66;100.00;102669.13;4762954;30;20058;-61
2022/07/09 07:59:54;;;;;;;11.18;7.53;;;;;;;20.76;100.00;102670.75;4761138;29;20055;-62
2022/07/09 08:02:20;;;;;;;9.98;7.03;;;;;;;20.93;100.00;102667.91;4762804;30;20048;-62
2022/07/09 08:04:47;;;;;;;11.90;7.68;;;;;;;21.01;100.00;102668.88;4758285;30;20051;-63
2022/07/09 08:07:13;;;;;;;10.48;6.53;;;;;;;21.14;100.00;102667.34;4766124;29;20051;-62
2022/07/09 08:09:40;;;;;;;11.80;6.43;;;;;;;21.32;100.00;102664.44;4757781;30;20058;-62
2022/07/09 08:12:07;;;;;;;9.93;6.40;;;;;;;21.45;100.00;102665.78;4757752;30;20162;-62
2022/07/09 08:14:33;;;;;;;11.02;6.45;;;;;;;21.45;100.00;102655.91;4770589;30;20060;-62
2022/07/09 08:17:00;;;;;;;9.30;5.63;;;;;;;21.52;100.00;102638.19;4760906;30;20068;-63
2022/07/09 08:19:26;;;;;;;7.53;5.20;;;;;;;21.66;100.00;102639.28;4775305;30;20059;-61
2022/07/09 08:21:58;;;;;;;11.30;5.68;;;;;;;21.72;100.00;102640.44;4760784;30;20056;-62
2022/07/09 08:24:26;;;;;;;11.23;5.18;;;;;;;21.73;100.00;102642.91;4759944;30;20170;-63
2022/07/09 08:26:53;;;;;;;10.85;5.20;;;;;;;21.86;100.00;102639.66;4765737;29;20051;-63
2022/07/09 08:29:19;;;;;;;7.60;4.72;;;;;;;22.04;100.00;102638.53;4777294;30;20047;-63
2022/07/09 08:31:49;;;;;;;7.30;5.00;;;;;;;22.09;100.00;102633.47;4767168;29;20474;-62
2022/07/09 08:34:16;;;;;;;10.48;6.25;;;;;;;21.95;100.00;102632.41;4755112;30;20580;-61
2022/07/09 08:36:44;;;;;;;10.77;5.93;;;;;;;21.95;100.00;102634.25;4767110;30;20051;-63
2022/07/09 08:39:10;;;;;;;11.15;6.10;;;;;;;21.96;100.00;102628.75;4754895;30;20444;-62
2022/07/09 08:41:37;;;;;;;8.70;5.53;;;;;;;22.18;100.00;102637.75;4760521;30;20056;-61
2022/07/09 08:44:04;;;;;;;9.80;5.30;;;;;;;22.35;100.00;102633.13;4750128;30;20514;-62
2022/07/09 08:46:34;;;;;;;8.18;5.53;;;;;;;22.35;100.00;102635.00;4766122;30;20064;-62
2022/07/09 08:49:07;;;;;;;8.52;5.32;;;;;;;22.56;100.00;102634.28;4759064;30;20066;-63
2022/07/09 08:51:36;;;;;;;7.90;4.60;;;;;;;22.89;100.00;102632.09;4759316;30;20062;-62
2022/07/09 08:54:03;;;;;;;11.30;5.20;;;;;;;23.09;100.00;102630.56;4758036;30;20064;-62
2022/07/09 08:56:29;;;;;;;8.38;5.65;;;;;;;23.23;100.00;102642.25;4749169;30;20067;-62
2022/07/09 08:58:56;;;;;;;10.93;5.95;;;;;;;23.16;100.00;102635.97;4759880;30;20067;-62
2022/07/09 09:01:22;;;;;;;8.38;5.40;;;;;;;23.34;100.00;102638.25;4758208;30;20152;-64
2022/07/09 09:03:49;;;;;;;8.80;5.82;;;;;;;23.26;100.00;102636.50;4758094;30;20060;-62
2022/07/09 09:06:15;;;;;;;9.95;6.20;;;;;;;23.40;100.00;102632.16;4749138;29;20146;-62
2022/07/09 09:08:44;;;;;;;8.02;6.38;;;;;;;23.51;100.00;102628.16;4755162;30;20062;-63
2022/07/09 09:11:22;;;;;;;12.45;6.53;;;;;;;23.46;100.00;102628.75;4769727;29;20459;-63
2022/07/09 09:13:51;;;;;;;10.65;7.10;;;;;;;23.35;100.00;102633.75;4758581;30;20060;-63
2022/07/09 09:16:18;;;;;;;11.07;6.95;;;;;;;23.22;100.00;102626.38;4761524;29;20070;-63
2022/07/09 09:18:50;;;;;;;10.68;6.28;;;;;;;23.07;100.00;102629.91;4744641;29;20060;-63
2022/07/09 09:21:19;;;;;;;11.07;6.53;;;;;;;23.13;100.00;102620.31;4747836;30;20059;-63
2022/07/09 09:23:52;;;;;;;8.98;5.97;;;;;;;23.15;100.00;102625.44;4747846;30;20414;-62
2022/07/09 09:26:20;;;;;;;9.27;6.32;;;;;;;23.19;100.00;102627.59;4762569;30;20062;-62
2022/07/09 09:28:56;;;;;;;11.73;5.97;;;;;;;23.15;100.00;102622.78;4760281;30;20063;-62
2022/07/09 09:31:26;;;;;;;7.72;5.97;;;;;;;23.19;100.00;102624.06;4749855;30;20429;-63
2022/07/09 09:34:18;;;;;;;9.05;5.93;;;;;;;23.27;100.00;102624.81;4766264;30;20407;-62
2022/07/09 09:36:46;;;;;;;8.07;6.05;;;;;;;23.40;100.00;102628.66;4765652;29;20160;-63
2022/07/09 09:39:26;;;;;;;13.13;7.00;;;;;;;23.22;100.00;102621.84;4754854;30;20060;-63
2022/07/09 09:42:03;;;;;;;9.50;6.78;;;;;;;23.19;100.00;102627.59;4759420;29;20056;-63
2022/07/09 09:44:40;;;;;;;9.48;7.40;;;;;;;23.13;100.00;102625.66;4763964;30;20441;-63
2022/07/09 09:47:07;;;;;;;;;;;;;;;23.39;100.00;102635.03;4763727;30;20066;-64
2022/07/09 09:49:35;;;;;;;10.00;6.85;;;;;;;23.28;100.00;102628.31;4748574;30;19933;-61
2022/07/09 09:52:11;;;;;;;10.95;7.22;;;;;;;23.34;100.00;102626.72;4755860;30;20059;-63
2022/07/09 09:54:39;;;;;;;10.35;6.68;;;;;;;23.40;100.00;102634.00;4745711;30;20140;-61
2022/07/09 09:57:06;;;;;;;;;;;;;;;23.42;100.00;102629.28;4755968;30;20056;-63
2022/07/09 09:59:40;;;;;;;10.10;7.03;;;;;;;23.42;100.00;102622.09;4745180;30;19926;-62
2022/07/09 10:02:09;;;;;;;7.28;6.47;;;;;;;23.48;100.00;102623.16;4750875;30;20048;-62
2022/07/09 10:04:37;;;;;;;9.60;7.50;;;;;;;23.49;100.00;102623.00;4741943;30;20565;-63
2022/07/09 10:07:05;;;;;;;9.98;7.38;;;;;;;23.52;100.00;102623.63;4758272;30;20133;-62
2022/07/09 10:09:31;;;;;;;8.48;6.15;;;;;;;23.63;100.00;102626.63;4747864;30;20053;-62
2022/07/09 10:11:58;;;;;;;9.07;6.85;;;;;;;23.65;100.00;102626.47;4750279;30;20055;-62
2022/07/09 10:14:24;;;;;;;13.07;7.57;;;;;;;23.47;100.00;102621.53;4763379;30;20087;-62
2022/07/09 10:16:52;;;;;;;8.60;6.78;;;;;;;23.37;100.00;102631.72;4765810;29;20058;-62
2022/07/09 10:19:29;;;;;;;10.23;6.63;;;;;;;23.24;100.00;102630.50;4771038;30;20081;-63
2022/07/09 10:21:57;;;;;;;9.98;6.82;;;;;;;23.18;100.00;102630.44;4750569;30;20075;-62
2022/07/09 10:24:28;;;;;;;;;;;;;;;23.15;100.00;102628.13;4757824;30;20056;-63
2022/07/09 10:27:05;;;;;;;7.25;5.45;;;;;;;23.17;100.00;102631.44;4766006;30;19937;-63
2022/07/09 10:29:33;;;;;;;;;;;;;;;23.12;100.00;102625.84;4764444;29;20056;-61
2022/07/09 10:31:59;;;;;;;6.13;3.73;;;;;;;23.28;100.00;102633.66;4762563;30;19930;-62
2022/07/09 10:34:41;;;;;;;6.50;2.90;;;;;;;23.80;100.00;102629.13;4756237;30;20532;-63
2022/07/09 10:37:08;;;;;;;4.85;3.10;;;;;;;24.15;100.00;102626.53;4762234;30;20132;-62
2022/07/09 10:39:34;;;;;;;3.90;2.20;;;;;;;24.51;100.00;102623.78;4760382;30;20055;-63
2022/07/09 10:42:19;;;;;;;2.55;2.25;;;;;;;24.78;100.00;102632.81;4759286;30;20143;-63
2022/07/09 10:44:46;;;;;;;2.95;2.05;;;;;;;25.14;100.00;102628.25;4761194;29;20067;-62
2022/07/09 10:47:12;;;;;;;5.33;2.03;;;;;;;25.32;100.00;102619.66;4759863;29;20060;-63
2022/07/09 10:49:39;;;;;;;5.10;1.88;;;;;;;25.45;100.00;102617.03;4753193;30;20297;-62
2022/07/09 10:52:06;;;;;;;4.68;1.90;;;;;;;25.77;100.00;102614.63;4752909;30;20064;-62
2022/07/09 10:54:34;;;;;;;3.25;2.13;;;;;;;25.99;100.00;102618.81;4763753;30;20059;-63
2022/07/09 10:57:00;;;;;;;5.70;1.50;;;;;;;26.05;96.61;102614.47;4762986;29;20490;-63
2022/07/09 10:59:27;;;;;;;2.90;1.50;;;;;;;26.13;96.70;102616.09;4762177;30;20465;-63
2022/07/09 11:01:55;;;;;;;4.82;1.70;;;;;;;26.07;94.70;102604.34;4767105;29;20056;-62
2022/07/09 11:04:29;;;;;;;2.65;1.70;;;;;;;26.10;96.33;102611.97;4759972;29;20063;-62
2022/07/09 11:06:58;;;;;;;3.58;1.65;;;;;;;26.01;94.38;102621.28;4746309;30;20403;-62
2022/07/09 11:09:28;;;;;;;4.30;1.77;;;;;;;26.16;93.16;102621.91;4752711;30;20135;-64
2022/07/09 11:11:54;;;;;;;3.53;1.65;;;;;;;25.97;94.74;102612.81;4770409;29;20468;-63
2022/07/09 11:14:20;;;;;;;3.67;1.50;;;;;;;25.94;94.21;102612.41;4756489;30;20060;-63